Time;durP1;ratioP1;P1;durP2;ratioP2;P2;SDS_P1;SDS_P2;PMS_P1;PMS_P2;Temp;Humidity;BMP_temperature;BMP_pressure;BME280_temperature;BME280_humidity;BME280_pressure;Samples;Min_cycle;Max_cycle;Signal;HPM_P1;HPM_P2
2023/10/22 00:00:53;;;;;;;15.50;6.70;;;;;;;;;;5014707;28;20054;-69
2023/10/22 00:03:21;;;;;;;18.40;8.30;;;;;;;;;;4997079;28;20029;-69
2023/10/22 00:05:46;;;;;;;17.63;9.65;;;;;;;;;;5014921;28;20405;-69
2023/10/22 00:08:14;;;;;;;10.00;5.68;;;;;;;;;;5014585;28;20097;-72
2023/10/22 00:10:48;;;;;;;11.40;6.13;;;;;;;;;;5013998;28;20037;-67
2023/10/22 00:13:14;;;;;;;9.88;5.97;;;;;;;;;;5014120;28;20034;-67
2023/10/22 00:15:39;;;;;;;9.63;5.35;;;;;;;;;;4980462;28;20045;-71
2023/10/22 00:18:05;;;;;;;9.15;6.55;;;;;;;;;;4996931;28;20445;-71
2023/10/22 00:20:31;;;;;;;16.67;10.00;;;;;;;;;;5014426;28;20048;-68
2023/10/22 00:22:56;;;;;;;18.20;10.57;;;;;;;;;;4996387;28;20372;-65
2023/10/22 00:25:21;;;;;;;14.65;9.68;;;;;;;;;;5014086;28;20029;-64
2023/10/22 00:27:47;;;;;;;9.93;7.25;;;;;;;;;;5013901;28;20144;-70
2023/10/22 00:30:13;;;;;;;5.72;4.38;;;;;;;;;;5013936;28;20485;-65
2023/10/22 00:32:38;;;;;;;7.55;3.13;;;;;;;;;;5014235;28;20488;-69
2023/10/22 00:35:04;;;;;;;6.22;3.90;;;;;;;;;;5025256;23;20075;-70
2023/10/22 00:37:30;;;;;;;9.80;6.80;;;;;;;;;;5014190;28;20081;-71
2023/10/22 00:39:59;;;;;;;18.00;11.70;;;;;;;;;;5017616;28;20488;-71
2023/10/22 00:42:25;;;;;;;14.50;9.10;;;;;;;;;;5019100;28;20026;-71
2023/10/22 00:44:50;;;;;;;8.68;6.15;;;;;;;;;;5002650;28;20029;-70
2023/10/22 00:47:15;;;;;;;7.10;4.93;;;;;;;;;;5002708;28;20033;-71
2023/10/22 00:49:42;;;;;;;5.95;3.83;;;;;;;;;;5020351;28;20026;-72
2023/10/22 00:52:07;;;;;;;3.70;3.38;;;;;;;;;;5020712;28;20360;-72
2023/10/22 00:54:34;;;;;;;5.38;4.20;;;;;;;;;;5020200;28;20034;-72
2023/10/22 00:56:59;;;;;;;4.95;4.38;;;;;;;;;;5020400;28;20116;-71
2023/10/22 00:59:25;;;;;;;4.63;3.50;;;;;;;;;;5020508;28;20022;-71
2023/10/22 01:01:50;;;;;;;7.38;6.53;;;;;;;;;;5018919;28;20453;-72
2023/10/22 01:04:16;;;;;;;6.63;5.65;;;;;;;;;;5002466;28;20030;-72
2023/10/22 01:06:42;;;;;;;4.65;4.13;;;;;;;;;;5020370;28;20026;-72
2023/10/22 01:09:09;;;;;;;3.53;3.17;;;;;;;;;;5002504;28;20397;-71
2023/10/22 01:11:37;;;;;;;3.90;2.72;;;;;;;;;;5002434;28;20017;-71
2023/10/22 01:14:03;;;;;;;2.90;2.28;;;;;;;;;;5002441;28;20026;-70
2023/10/22 01:16:29;;;;;;;2.35;2.15;;;;;;;;;;5020351;28;20060;-70
2023/10/22 01:18:54;;;;;;;2.80;2.20;;;;;;;;;;5002289;28;20055;-70
2023/10/22 01:21:24;;;;;;;2.13;1.92;;;;;;;;;;5020564;28;20033;-70
2023/10/22 01:23:50;;;;;;;2.22;2.03;;;;;;;;;;5002388;28;20030;-71
2023/10/22 01:26:15;;;;;;;1.70;1.60;;;;;;;;;;5002337;28;20388;-71
2023/10/22 01:28:40;;;;;;;1.98;1.50;;;;;;;;;;5019988;28;20032;-72
2023/10/22 01:31:10;;;;;;;3.67;2.00;;;;;;;;;;5002371;28;20488;-72
2023/10/22 01:33:35;;;;;;;2.25;1.88;;;;;;;;;;5019988;28;20040;-72
2023/10/22 01:36:01;;;;;;;2.45;2.25;;;;;;;;;;5019767;28;20042;-72
2023/10/22 01:38:26;;;;;;;2.53;1.83;;;;;;;;;;5019842;28;20369;-72
2023/10/22 01:40:52;;;;;;;2.28;1.77;;;;;;;;;;5020047;28;20037;-72
2023/10/22 01:43:17;;;;;;;1.92;1.80;;;;;;;;;;5019986;28;20025;-73
2023/10/22 01:45:43;;;;;;;2.03;1.73;;;;;;;;;;5002422;28;20026;-71
2023/10/22 01:48:08;;;;;;;2.13;1.65;;;;;;;;;;5019815;28;20380;-71
2023/10/22 01:50:34;;;;;;;1.77;1.58;;;;;;;;;;5018465;28;20396;-71
2023/10/22 01:53:00;;;;;;;1.50;1.40;;;;;;;;;;5016597;28;20034;-71
2023/10/22 01:55:27;;;;;;;1.70;1.60;;;;;;;;;;4999023;28;20056;-71
2023/10/22 01:57:52;;;;;;;2.47;1.80;;;;;;;;;;4998864;28;20480;-71
2023/10/22 02:00:17;;;;;;;1.73;1.63;;;;;;;;;;5016837;28;20051;-72
2023/10/22 02:02:43;;;;;;;1.42;1.33;;;;;;;;;;5016754;28;20458;-71
2023/10/22 02:05:08;;;;;;;1.92;1.70;;;;;;;;;;4998855;28;20026;-71
2023/10/22 02:07:35;;;;;;;2.55;2.10;;;;;;;;;;5016392;28;20033;-71
2023/10/22 02:10:01;;;;;;;2.80;2.40;;;;;;;;;;4998780;28;20022;-71
2023/10/22 02:12:27;;;;;;;2.70;2.22;;;;;;;;;;4998701;28;20030;-71
2023/10/22 02:14:53;;;;;;;3.08;2.50;;;;;;;;;;5016308;28;20535;-71
2023/10/22 02:17:18;;;;;;;4.80;2.13;;;;;;;;;;5016340;28;20125;-71
2023/10/22 02:19:44;;;;;;;2.92;2.42;;;;;;;;;;5015362;28;20050;-71
2023/10/22 02:22:09;;;;;;;4.22;2.67;;;;;;;;;;5028391;23;20508;-71
2023/10/22 02:24:35;;;;;;;2.75;2.55;;;;;;;;;;4998334;28;20022;-71
2023/10/22 02:27:17;;;;;;;3.70;2.20;;;;;;;;;;4998444;28;20025;-71
2023/10/22 02:29:42;;;;;;;2.40;2.00;;;;;;;;;;5016048;28;20099;-71
2023/10/22 02:32:10;;;;;;;2.90;2.08;;;;;;;;;;4998356;28;20034;-71
2023/10/22 02:34:36;;;;;;;2.22;2.00;;;;;;;;;;5010037;23;20496;-67
2023/10/22 02:37:02;;;;;;;2.10;2.00;;;;;;;;;;4998250;28;20037;-67
2023/10/22 02:39:27;;;;;;;2.05;1.90;;;;;;;;;;5015900;28;20021;-67
2023/10/22 02:41:52;;;;;;;3.47;1.80;;;;;;;;;;5016238;28;20384;-67
2023/10/22 02:44:21;;;;;;;2.10;1.90;;;;;;;;;;4998168;28;20169;-68
2023/10/22 02:46:46;;;;;;;2.58;2.13;;;;;;;;;;5015930;28;20025;-66
2023/10/22 02:49:12;;;;;;;1.98;1.80;;;;;;;;;;5015830;28;20026;-65
2023/10/22 02:51:37;;;;;;;1.70;1.60;;;;;;;;;;4998039;28;20022;-66
2023/10/22 02:54:03;;;;;;;1.77;1.48;;;;;;;;;;4997944;28;20486;-65
2023/10/22 02:56:28;;;;;;;3.92;1.77;;;;;;;;;;5015686;28;20026;-65
2023/10/22 02:58:54;;;;;;;1.83;1.73;;;;;;;;;;5015957;28;20342;-69
2023/10/22 03:01:19;;;;;;;2.90;1.70;;;;;;;;;;4997813;28;20044;-69
2023/10/22 03:03:45;;;;;;;2.58;1.70;;;;;;;;;;5014541;28;20010;-69
2023/10/22 03:06:12;;;;;;;2.08;1.98;;;;;;;;;;4997661;28;20084;-68
2023/10/22 03:08:39;;;;;;;2.97;2.17;;;;;;;;;;4997660;28;20022;-67
2023/10/22 03:11:07;;;;;;;9.38;7.20;;;;;;;;;;4997606;28;20038;-68
2023/10/22 03:13:32;;;;;;;16.40;10.88;;;;;;;;;;5014062;28;20439;-67
2023/10/22 03:16:08;;;;;;;22.45;15.50;;;;;;;;;;5015342;28;20030;-67
2023/10/22 03:18:33;;;;;;;24.20;17.05;;;;;;;;;;5013753;28;20460;-68
2023/10/22 03:20:59;;;;;;;13.32;9.82;;;;;;;;;;5015322;28;20156;-67
2023/10/22 03:26:06;;;;;;;9.52;6.93;;;;;;;;;;5013460;23;20619;-71
2023/10/22 03:28:31;;;;;;;6.70;5.07;;;;;;;;;;4995303;28;20031;-73
2023/10/22 03:31:00;;;;;;;4.43;3.88;;;;;;;;;;4977903;28;20120;-73
2023/10/22 03:33:26;;;;;;;5.20;3.25;;;;;;;;;;4995550;28;20125;-72
2023/10/22 03:35:52;;;;;;;3.25;3.03;;;;;;;;;;4995286;28;20053;-72
2023/10/22 03:38:18;;;;;;;4.10;3.42;;;;;;;;;;4995111;28;20053;-72
2023/10/22 03:40:43;;;;;;;4.28;3.60;;;;;;;;;;4977630;28;20027;-73
2023/10/22 03:43:08;;;;;;;4.28;3.80;;;;;;;;;;4977770;28;20130;-73
2023/10/22 03:45:37;;;;;;;4.13;3.55;;;;;;;;;;4977443;28;20033;-73
2023/10/22 03:48:03;;;;;;;4.60;3.38;;;;;;;;;;4977947;28;20050;-73
2023/10/22 03:50:29;;;;;;;3.80;3.42;;;;;;;;;;4994849;28;20034;-73
2023/10/22 03:52:54;;;;;;;4.90;3.80;;;;;;;;;;4961308;28;20038;-73
2023/10/22 03:55:20;;;;;;;4.03;3.58;;;;;;;;;;4977315;28;20049;-73
2023/10/22 03:57:46;;;;;;;4.25;3.85;;;;;;;;;;4977580;28;20436;-73
2023/10/22 04:00:11;;;;;;;5.13;4.40;;;;;;;;;;4994722;28;20050;-73
2023/10/22 04:02:37;;;;;;;5.50;4.43;;;;;;;;;;4994756;28;20038;-73
2023/10/22 04:05:02;;;;;;;4.32;3.92;;;;;;;;;;4994676;28;20085;-73
2023/10/22 04:07:30;;;;;;;4.55;4.25;;;;;;;;;;4961511;28;20058;-73
2023/10/22 04:09:56;;;;;;;4.70;4.10;;;;;;;;;;4994466;28;20074;-73
2023/10/22 04:12:22;;;;;;;3.80;3.50;;;;;;;;;;4994972;28;20026;-73
2023/10/22 04:14:47;;;;;;;5.20;3.67;;;;;;;;;;4994145;28;20485;-72
2023/10/22 04:17:13;;;;;;;4.20;3.60;;;;;;;;;;4994829;28;20110;-73
2023/10/22 04:19:38;;;;;;;3.50;3.30;;;;;;;;;;4976990;28;20473;-72
2023/10/22 04:22:03;;;;;;;3.92;3.63;;;;;;;;;;4994854;28;20025;-72
2023/10/22 04:24:29;;;;;;;3.38;3.17;;;;;;;;;;4994249;28;20026;-72
2023/10/22 04:26:55;;;;;;;3.50;3.17;;;;;;;;;;4994350;28;20058;-72
2023/10/22 04:29:21;;;;;;;3.45;3.25;;;;;;;;;;4994494;28;20019;-72
2023/10/22 04:31:47;;;;;;;3.47;3.28;;;;;;;;;;4976961;28;20034;-71
2023/10/22 04:34:12;;;;;;;3.88;3.40;;;;;;;;;;4993762;28;20050;-71
2023/10/22 04:36:37;;;;;;;5.25;3.60;;;;;;;;;;4994017;28;20050;-71
2023/10/22 04:39:03;;;;;;;5.45;3.85;;;;;;;;;;4993356;28;20129;-73
2023/10/22 04:41:28;;;;;;;5.60;3.83;;;;;;;;;;4994098;28;20026;-72
2023/10/22 04:43:54;;;;;;;6.13;4.10;;;;;;;;;;4976679;28;20026;-72
2023/10/22 04:46:20;;;;;;;11.05;4.25;;;;;;;;;;4994056;28;20066;-72
2023/10/22 04:48:45;;;;;;;5.25;3.95;;;;;;;;;;4993945;28;20066;-73
2023/10/22 04:51:21;;;;;;;6.38;4.40;;;;;;;;;;4976663;28;20110;-73
2023/10/22 04:53:46;;;;;;;6.07;4.40;;;;;;;;;;4994146;28;20034;-72
2023/10/22 04:56:12;;;;;;;5.15;4.13;;;;;;;;;;4993873;28;20110;-73
2023/10/22 05:01:36;;;;;;;5.65;3.85;;;;;;;;;;5032030;23;20046;-72
2023/10/22 05:04:03;;;;;;;7.75;5.35;;;;;;;;;;5013407;28;20029;-73
2023/10/22 05:06:28;;;;;;;6.32;4.95;;;;;;;;;;4996016;28;20369;-73
2023/10/22 05:08:54;;;;;;;7.88;5.00;;;;;;;;;;5013581;28;20037;-73
2023/10/22 05:11:20;;;;;;;5.70;5.10;;;;;;;;;;5013731;28;20034;-74
2023/10/22 05:13:46;;;;;;;4.95;4.45;;;;;;;;;;5013740;28;20022;-74
2023/10/22 05:16:11;;;;;;;5.00;4.25;;;;;;;;;;5013546;28;20041;-74
2023/10/22 05:18:37;;;;;;;4.13;3.75;;;;;;;;;;5013454;28;20037;-72
2023/10/22 05:21:05;;;;;;;3.78;3.38;;;;;;;;;;5013824;28;20038;-71
2023/10/22 05:23:31;;;;;;;3.60;3.38;;;;;;;;;;4995832;28;20022;-71
2023/10/22 05:26:09;;;;;;;3.42;3.17;;;;;;;;;;4996269;28;20034;-72
2023/10/22 05:28:35;;;;;;;3.55;3.22;;;;;;;;;;4999523;28;20070;-72
2023/10/22 05:31:00;;;;;;;3.30;3.05;;;;;;;;;;5017094;28;20038;-72
2023/10/22 05:33:26;;;;;;;2.60;2.47;;;;;;;;;;5017091;28;20030;-71
2023/10/22 05:35:51;;;;;;;2.60;2.40;;;;;;;;;;5017200;28;20188;-74
2023/10/22 05:38:17;;;;;;;2.63;2.53;;;;;;;;;;5016935;28;20026;-72
2023/10/22 05:40:42;;;;;;;2.85;2.65;;;;;;;;;;5016894;28;20029;-72
2023/10/22 05:43:07;;;;;;;7.13;6.55;;;;;;;;;;5016974;28;20014;-72
2023/10/22 05:45:33;;;;;;;3.80;3.50;;;;;;;;;;5017388;28;20030;-72
2023/10/22 05:47:59;;;;;;;2.42;2.33;;;;;;;;;;4999806;28;20073;-72
2023/10/22 05:50:25;;;;;;;2.97;1.75;;;;;;;;;;5016994;28;20448;-73
2023/10/22 05:52:50;;;;;;;3.70;3.35;;;;;;;;;;5016833;28;20029;-72
2023/10/22 05:55:16;;;;;;;3.25;3.03;;;;;;;;;;5017283;28;20034;-71
2023/10/22 05:57:43;;;;;;;3.53;3.20;;;;;;;;;;5015411;28;20058;-71
2023/10/22 06:00:09;;;;;;;2.90;2.70;;;;;;;;;;5016863;28;20037;-72
2023/10/22 06:02:34;;;;;;;1.75;1.65;;;;;;;;;;5016471;28;20034;-72
2023/10/22 06:05:00;;;;;;;2.17;1.98;;;;;;;;;;5016932;28;20376;-73
2023/10/22 06:07:25;;;;;;;2.58;2.38;;;;;;;;;;5015453;28;20026;-72
2023/10/22 06:09:51;;;;;;;2.28;2.15;;;;;;;;;;5016755;28;20044;-71
2023/10/22 06:12:17;;;;;;;2.10;1.80;;;;;;;;;;5016530;28;20033;-71
2023/10/22 06:14:44;;;;;;;1.80;1.70;;;;;;;;;;5016421;28;20020;-74
2023/10/22 06:17:09;;;;;;;1.48;1.38;;;;;;;;;;5016363;28;20408;-74
2023/10/22 06:19:35;;;;;;;1.80;1.70;;;;;;;;;;5015794;28;20026;-74
2023/10/22 06:22:01;;;;;;;1.92;1.77;;;;;;;;;;5016024;28;20113;-72
2023/10/22 06:24:26;;;;;;;1.83;1.52;;;;;;;;;;5015740;28;20065;-73
2023/10/22 06:26:52;;;;;;;3.38;1.67;;;;;;;;;;5014830;28;20030;-74
2023/10/22 06:29:17;;;;;;;2.33;1.58;;;;;;;;;;5015636;28;20068;-73
2023/10/22 06:31:43;;;;;;;2.25;2.05;;;;;;;;;;5015694;28;20042;-70
2023/10/22 06:34:08;;;;;;;2.58;2.42;;;;;;;;;;5015471;28;20041;-70
2023/10/22 06:36:33;;;;;;;2.80;2.47;;;;;;;;;;5013983;28;20093;-70
2023/10/22 06:38:59;;;;;;;2.90;2.70;;;;;;;;;;5015278;28;20052;-70
2023/10/22 06:41:25;;;;;;;3.13;2.88;;;;;;;;;;5014194;28;20088;-70
2023/10/22 06:43:51;;;;;;;3.03;2.22;;;;;;;;;;5015361;28;20029;-70
2023/10/22 06:46:18;;;;;;;2.03;1.90;;;;;;;;;;5014310;28;20041;-70
2023/10/22 06:48:44;;;;;;;2.40;2.20;;;;;;;;;;4997818;28;20079;-70
2023/10/22 06:51:13;;;;;;;2.70;1.70;;;;;;;;;;5014940;28;20033;-70
2023/10/22 06:53:39;;;;;;;2.25;2.05;;;;;;;;;;4997973;28;20033;-70
2023/10/22 06:56:07;;;;;;;2.30;2.03;;;;;;;;;;5013916;28;20461;-70
2023/10/22 06:58:35;;;;;;;2.20;2.10;;;;;;;;;;5015263;28;20034;-69
2023/10/22 07:01:07;;;;;;;2.03;1.88;;;;;;;;;;5015140;28;20025;-69
2023/10/22 07:03:37;;;;;;;2.38;2.20;;;;;;;;;;5014854;28;20033;-70
2023/10/22 07:06:02;;;;;;;2.83;1.90;;;;;;;;;;4996880;28;20554;-70
2023/10/22 07:08:28;;;;;;;2.45;2.25;;;;;;;;;;5014476;28;20038;-69
2023/10/22 07:10:54;;;;;;;4.50;3.28;;;;;;;;;;5013592;28;20037;-70
2023/10/22 07:13:20;;;;;;;8.80;7.97;;;;;;;;;;5014921;28;20092;-69
2023/10/22 07:15:46;;;;;;;9.35;8.00;;;;;;;;;;5014916;28;20026;-66
2023/10/22 07:18:18;;;;;;;7.90;7.10;;;;;;;;;;5013890;28;20088;-67
2023/10/22 07:20:45;;;;;;;5.80;5.22;;;;;;;;;;5013900;28;20046;-65
2023/10/22 07:23:13;;;;;;;3.67;2.92;;;;;;;;;;5014883;28;20072;-65
2023/10/22 07:28:21;;;;;;;2.95;2.75;;;;;;;;;;5021524;23;20485;-70
2023/10/22 07:30:48;;;;;;;2.78;2.45;;;;;;;;;;5014467;28;20022;-70
2023/10/22 07:33:15;;;;;;;2.70;2.50;;;;;;;;;;5014728;28;20457;-69
2023/10/22 07:35:40;;;;;;;3.50;2.45;;;;;;;;;;5015195;28;20057;-70
2023/10/22 07:38:06;;;;;;;2.40;2.20;;;;;;;;;;5015171;28;20073;-70
2023/10/22 07:40:35;;;;;;;3.65;2.22;;;;;;;;;;5014871;28;20010;-70
2023/10/22 07:43:00;;;;;;;2.40;2.25;;;;;;;;;;5013399;28;20483;-70
2023/10/22 07:45:26;;;;;;;2.83;2.63;;;;;;;;;;5011424;28;20026;-70
2023/10/22 07:47:51;;;;;;;4.07;3.58;;;;;;;;;;4994836;28;20042;-64
2023/10/22 07:50:17;;;;;;;3.67;3.45;;;;;;;;;;5011203;28;20034;-64
2023/10/22 07:52:43;;;;;;;3.72;3.42;;;;;;;;;;5013843;28;20030;-70
2023/10/22 07:55:08;;;;;;;3.78;3.35;;;;;;;;;;4995648;28;20511;-70
2023/10/22 07:57:34;;;;;;;3.08;2.80;;;;;;;;;;5010401;28;20117;-70
2023/10/22 07:59:59;;;;;;;2.90;2.70;;;;;;;;;;5011678;28;20018;-70
2023/10/22 08:02:25;;;;;;;4.72;3.40;;;;;;;;;;5012246;28;20495;-70
2023/10/22 08:04:50;;;;;;;3.65;3.35;;;;;;;;;;4994821;28;20389;-70
2023/10/22 08:07:19;;;;;;;4.45;4.05;;;;;;;;;;5011325;28;20041;-70
2023/10/22 08:09:44;;;;;;;4.43;4.13;;;;;;;;;;5012546;28;20034;-70
2023/10/22 08:12:10;;;;;;;4.35;4.15;;;;;;;;;;5012532;28;20095;-70
2023/10/22 08:14:35;;;;;;;4.85;4.55;;;;;;;;;;5013691;28;20530;-71
2023/10/22 08:17:01;;;;;;;12.27;8.70;;;;;;;;;;4996421;28;20445;-70
2023/10/22 08:19:26;;;;;;;15.82;10.93;;;;;;;;;;5014377;28;20022;-71
2023/10/22 08:21:51;;;;;;;27.85;17.63;;;;;;;;;;5013955;28;20539;-70
2023/10/22 08:24:17;;;;;;;11.10;8.20;;;;;;;;;;5014307;28;20045;-70
2023/10/22 08:26:42;;;;;;;19.73;14.00;;;;;;;;;;4996265;28;20060;-70
2023/10/22 08:29:08;;;;;;;8.57;7.20;;;;;;;;;;5012706;28;20396;-70
2023/10/22 08:31:33;;;;;;;3.85;3.55;;;;;;;;;;5014510;28;20080;-70
2023/10/22 08:33:59;;;;;;;3.13;2.83;;;;;;;;;;5013029;28;20030;-70
2023/10/22 08:36:24;;;;;;;2.70;2.50;;;;;;;;;;5014207;28;20109;-70
2023/10/22 08:38:50;;;;;;;3.88;3.58;;;;;;;;;;4996734;28;20112;-70
2023/10/22 08:41:22;;;;;;;2.92;2.63;;;;;;;;;;4996282;28;20026;-70
2023/10/22 08:43:48;;;;;;;2.95;2.60;;;;;;;;;;5014093;28;20036;-70
2023/10/22 08:46:14;;;;;;;2.60;2.40;;;;;;;;;;4996208;28;20022;-70
2023/10/22 08:48:40;;;;;;;6.57;4.22;;;;;;;;;;5013639;28;20057;-69
2023/10/22 08:51:06;;;;;;;5.72;4.90;;;;;;;;;;5014054;28;20066;-71
2023/10/22 08:53:32;;;;;;;3.67;3.38;;;;;;;;;;5014021;28;20413;-71
2023/10/22 08:56:00;;;;;;;2.75;2.55;;;;;;;;;;5014055;28;20065;-63
2023/10/22 08:58:26;;;;;;;4.47;3.50;;;;;;;;;;4995983;28;20504;-63
2023/10/22 09:00:51;;;;;;;5.15;4.65;;;;;;;;;;5015750;28;20109;-65
2023/10/22 09:03:17;;;;;;;4.35;3.88;;;;;;;;;;5017644;28;20372;-65
2023/10/22 09:05:43;;;;;;;3.80;3.22;;;;;;;;;;5016383;28;20109;-63
2023/10/22 09:08:09;;;;;;;4.25;3.28;;;;;;;;;;5018143;28;20037;-64
2023/10/22 09:10:36;;;;;;;3.58;2.70;;;;;;;;;;5017516;28;20041;-65
2023/10/22 09:13:04;;;;;;;2.95;2.60;;;;;;;;;;5017759;28;20080;-65
2023/10/22 09:15:36;;;;;;;3.85;3.15;;;;;;;;;;5017649;28;20040;-65
2023/10/22 09:18:02;;;;;;;3.60;2.83;;;;;;;;;;5017314;28;20026;-66
2023/10/22 09:20:29;;;;;;;4.10;2.83;;;;;;;;;;5017606;28;20117;-66
2023/10/22 09:23:21;;;;;;;2.85;2.65;;;;;;;;;;5017848;28;20457;-65
2023/10/22 09:25:47;;;;;;;4.15;3.13;;;;;;;;;;4994771;28;20049;-65
2023/10/22 09:28:25;;;;;;;4.60;3.33;;;;;;;;;;5017078;28;20042;-65
2023/10/22 09:30:57;;;;;;;5.57;3.67;;;;;;;;;;5017188;28;20036;-65
2023/10/22 09:33:32;;;;;;;6.78;4.28;;;;;;;;;;5017358;28;20029;-65
2023/10/22 09:36:02;;;;;;;7.45;4.78;;;;;;;;;;5017329;28;20033;-65
2023/10/22 09:38:45;;;;;;;7.15;5.72;;;;;;;;;;5015805;28;20468;-65
2023/10/22 09:41:31;;;;;;;9.73;6.55;;;;;;;;;;4999339;28;20030;-65
2023/10/22 09:43:59;;;;;;;13.27;6.35;;;;;;;;;;5029716;23;20057;-65
2023/10/22 09:46:27;;;;;;;10.93;7.00;;;;;;;;;;5017120;28;20112;-70
2023/10/22 09:48:53;;;;;;;9.90;6.57;;;;;;;;;;5017084;28;20014;-70
2023/10/22 09:51:21;;;;;;;9.48;6.60;;;;;;;;;;4999161;28;20034;-68
2023/10/22 09:53:53;;;;;;;7.72;6.30;;;;;;;;;;5017017;28;20427;-64
2023/10/22 09:56:22;;;;;;;7.53;6.40;;;;;;;;;;5017265;28;20046;-65
2023/10/22 09:58:48;;;;;;;7.47;5.53;;;;;;;;;;5016545;28;20044;-65
2023/10/22 10:01:14;;;;;;;8.20;5.40;;;;;;;;;;5016881;28;20453;-64
2023/10/22 10:03:41;;;;;;;4.10;3.72;;;;;;;;;;5015630;28;20076;-63
2023/10/22 10:06:07;;;;;;;4.18;3.35;;;;;;;;;;5016764;28;20480;-63
2023/10/22 10:08:34;;;;;;;3.08;2.67;;;;;;;;;;5016983;28;20034;-65
2023/10/22 10:11:00;;;;;;;3.03;2.65;;;;;;;;;;5016425;28;20017;-65
2023/10/22 10:13:25;;;;;;;3.40;3.10;;;;;;;;;;5015691;28;20392;-64
2023/10/22 10:15:57;;;;;;;2.88;2.42;;;;;;;;;;5016604;28;20040;-64
2023/10/22 10:18:43;;;;;;;2.97;2.58;;;;;;;;;;5016456;28;20041;-65
2023/10/22 10:21:27;;;;;;;2.58;2.38;;;;;;;;;;5014993;28;20468;-64
2023/10/22 10:24:27;;;;;;;5.00;2.47;;;;;;;;;;5016697;28;20456;-64
2023/10/22 10:26:59;;;;;;;3.00;2.55;;;;;;;;;;4955986;29;20470;-64
2023/10/22 10:29:26;;;;;;;2.75;2.22;;;;;;;;;;5005822;28;20488;-65
2023/10/22 10:31:52;;;;;;;2.67;2.28;;;;;;;;;;5014866;28;20080;-63
2023/10/22 10:34:25;;;;;;;3.28;2.90;;;;;;;;;;5016264;28;20427;-64
2023/10/22 10:36:51;;;;;;;2.63;2.42;;;;;;;;;;4998308;28;20065;-65
2023/10/22 10:39:35;;;;;;;2.60;2.40;;;;;;;;;;5016097;28;20058;-64
2023/10/22 10:42:01;;;;;;;2.20;2.10;;;;;;;;;;4998228;28;20026;-64
2023/10/22 10:44:30;;;;;;;2.08;1.75;;;;;;;;;;5016075;28;20041;-66
2023/10/22 10:47:14;;;;;;;3.60;2.75;;;;;;;;;;5015716;28;20022;-64
2023/10/22 10:50:12;;;;;;;2.50;2.30;;;;;;;;;;5015078;28;20053;-63
2023/10/22 10:52:37;;;;;;;2.45;2.25;;;;;;;;;;4990281;28;20038;-64
2023/10/22 10:55:15;;;;;;;3.67;2.72;;;;;;;;;;4998005;28;20014;-63
2023/10/22 10:57:48;;;;;;;2.78;2.58;;;;;;;;;;4997946;28;20488;-63
2023/10/22 11:00:20;;;;;;;3.30;3.00;;;;;;;;;;5015752;28;20502;-66
2023/10/22 11:02:50;;;;;;;3.72;3.40;;;;;;;;;;4997880;28;20383;-65
2023/10/22 11:05:16;;;;;;;3.90;3.53;;;;;;;;;;5015387;28;20022;-63
2023/10/22 11:07:45;;;;;;;5.22;4.72;;;;;;;;;;5015885;28;20052;-64
2023/10/22 11:10:14;;;;;;;7.28;4.82;;;;;;;;;;5015843;28;20034;-64
2023/10/22 11:12:39;;;;;;;6.13;4.78;;;;;;;;;;5015280;28;20056;-64
2023/10/22 11:15:06;;;;;;;5.63;4.68;;;;;;;;;;5015469;28;20456;-65
2023/10/22 11:17:31;;;;;;;5.70;5.18;;;;;;;;;;5015366;28;20038;-66
2023/10/22 11:19:57;;;;;;;5.60;5.05;;;;;;;;;;4997542;28;20037;-65
2023/10/22 11:22:23;;;;;;;5.18;4.55;;;;;;;;;;5015366;28;20037;-65
2023/10/22 11:24:49;;;;;;;5.82;3.92;;;;;;;;;;5014091;28;20388;-65
2023/10/22 11:27:15;;;;;;;5.20;4.50;;;;;;;;;;5014955;28;20113;-66
2023/10/22 11:29:41;;;;;;;4.95;3.92;;;;;;;;;;5015266;28;20107;-66
2023/10/22 11:32:10;;;;;;;5.00;4.50;;;;;;;;;;5014898;28;20034;-65
2023/10/22 11:34:35;;;;;;;5.13;4.35;;;;;;;;;;5015167;28;20468;-65
2023/10/22 11:37:01;;;;;;;4.72;4.28;;;;;;;;;;5015005;28;20120;-64
2023/10/22 11:39:36;;;;;;;5.05;4.55;;;;;;;;;;4997141;28;20030;-64
2023/10/22 11:42:03;;;;;;;5.35;4.55;;;;;;;;;;5014980;28;20093;-66
2023/10/22 11:44:34;;;;;;;5.47;4.97;;;;;;;;;;5014701;28;20126;-64
2023/10/22 11:47:00;;;;;;;6.65;4.57;;;;;;;;;;4997102;28;20026;-65
2023/10/22 11:49:26;;;;;;;4.25;3.90;;;;;;;;;;5014548;28;20056;-65
2023/10/22 11:51:57;;;;;;;4.28;3.88;;;;;;;;;;5014548;28;20073;-63
2023/10/22 11:54:42;;;;;;;4.53;4.13;;;;;;;;;;5015063;28;20445;-64
2023/10/22 11:57:07;;;;;;;5.85;4.05;;;;;;;;;;4997131;28;20037;-65
2023/10/22 11:59:33;;;;;;;3.88;3.55;;;;;;;;;;4996835;28;20049;-65
2023/10/22 12:01:58;;;;;;;3.63;3.33;;;;;;;;;;4996806;28;20145;-65
2023/10/22 12:04:24;;;;;;;3.80;3.47;;;;;;;;;;4996739;28;20049;-64
2023/10/22 12:06:50;;;;;;;5.03;3.78;;;;;;;;;;5014570;28;20050;-65
2023/10/22 12:09:16;;;;;;;3.67;3.33;;;;;;;;;;5040115;23;20473;-70
2023/10/22 12:11:41;;;;;;;3.80;3.53;;;;;;;;;;5014545;28;20034;-70
2023/10/22 12:14:06;;;;;;;3.58;3.28;;;;;;;;;;5013593;28;20040;-70
2023/10/22 12:16:34;;;;;;;3.92;3.28;;;;;;;;;;5014439;28;20117;-70
2023/10/22 12:18:59;;;;;;;3.10;2.90;;;;;;;;;;5014338;28;20495;-65
2023/10/22 12:21:26;;;;;;;2.85;2.67;;;;;;;;;;5028111;23;20070;-64
2023/10/22 12:23:52;;;;;;;2.70;2.50;;;;;;;;;;5014352;28;20030;-63
2023/10/22 12:26:17;;;;;;;2.72;2.53;;;;;;;;;;5014587;28;20018;-66
2023/10/22 12:28:43;;;;;;;3.58;3.28;;;;;;;;;;5014014;28;20100;-64
2023/10/22 12:31:08;;;;;;;3.40;3.10;;;;;;;;;;5014242;28;20030;-64
2023/10/22 12:33:34;;;;;;;2.38;2.17;;;;;;;;;;5014235;28;20034;-64
2023/10/22 12:36:01;;;;;;;2.88;2.60;;;;;;;;;;5013912;28;20017;-63
2023/10/22 12:38:26;;;;;;;2.97;2.78;;;;;;;;;;4996290;28;20034;-64
2023/10/22 12:40:52;;;;;;;3.58;3.28;;;;;;;;;;4996523;28;20460;-65
2023/10/22 12:43:17;;;;;;;4.13;3.83;;;;;;;;;;5013877;28;20037;-64
2023/10/22 12:45:43;;;;;;;2.92;2.72;;;;;;;;;;5014109;28;20034;-65
2023/10/22 12:48:08;;;;;;;2.65;2.45;;;;;;;;;;5014371;28;20030;-66
2023/10/22 12:50:33;;;;;;;2.38;2.17;;;;;;;;;;5013833;28;20488;-65
2023/10/22 12:52:59;;;;;;;3.80;3.45;;;;;;;;;;5014332;28;20471;-66
2023/10/22 12:55:27;;;;;;;2.92;2.72;;;;;;;;;;5014277;28;20041;-65
2023/10/22 12:57:53;;;;;;;3.00;2.80;;;;;;;;;;5013430;28;20116;-65
2023/10/22 13:00:18;;;;;;;3.25;3.05;;;;;;;;;;5014338;28;20525;-65
2023/10/22 13:02:44;;;;;;;2.75;2.65;;;;;;;;;;5013235;28;20033;-66
2023/10/22 13:05:09;;;;;;;3.17;2.88;;;;;;;;;;5013563;28;20073;-67
2023/10/22 13:07:36;;;;;;;2.78;2.47;;;;;;;;;;5013630;28;20380;-67
2023/10/22 13:10:03;;;;;;;2.90;2.38;;;;;;;;;;5013566;28;20072;-68
2023/10/22 13:12:29;;;;;;;2.88;2.08;;;;;;;;;;5013815;28;20034;-67
2023/10/22 13:14:54;;;;;;;2.35;1.77;;;;;;;;;;5013982;28;20034;-68
2023/10/22 13:17:20;;;;;;;2.20;2.00;;;;;;;;;;5013669;28;20041;-68
2023/10/22 13:19:45;;;;;;;1.55;1.45;;;;;;;;;;5014073;28;20038;-68
2023/10/22 13:22:10;;;;;;;2.08;1.98;;;;;;;;;;5013296;28;20084;-68
2023/10/22 13:24:36;;;;;;;1.38;1.27;;;;;;;;;;5012869;28;20030;-75
2023/10/22 13:27:04;;;;;;;1.70;1.60;;;;;;;;;;5006924;28;20022;-68
2023/10/22 13:29:30;;;;;;;1.40;1.30;;;;;;;;;;5004091;28;20026;-68
2023/10/22 13:31:55;;;;;;;1.52;1.33;;;;;;;;;;5005495;28;20483;-73
2023/10/22 13:34:21;;;;;;;1.17;1.10;;;;;;;;;;5006504;28;20072;-74
2023/10/22 13:36:46;;;;;;;1.35;1.25;;;;;;;;;;5013604;28;20025;-75
2023/10/22 13:39:11;;;;;;;1.85;1.20;;;;;;;;;;4996162;28;20045;-74
2023/10/22 13:41:37;;;;;;;1.60;1.50;;;;;;;;;;5012974;28;20076;-75
2023/10/22 13:44:03;;;;;;;1.50;1.40;;;;;;;;;;5013124;28;20372;-66
2023/10/22 13:46:28;;;;;;;1.60;1.50;;;;;;;;;;5012123;28;20030;-74
2023/10/22 13:48:53;;;;;;;1.17;1.02;;;;;;;;;;5015761;28;20022;-68
2023/10/22 13:51:19;;;;;;;1.30;1.10;;;;;;;;;;4998209;28;20034;-68
2023/10/22 13:53:44;;;;;;;1.30;1.20;;;;;;;;;;5017202;28;20029;-68
2023/10/22 13:56:09;;;;;;;1.23;1.00;;;;;;;;;;4999464;28;20029;-67
2023/10/22 13:58:35;;;;;;;0.90;0.90;;;;;;;;;;5015381;28;20030;-68
2023/10/22 14:01:00;;;;;;;1.10;1.10;;;;;;;;;;5015356;28;20037;-68
2023/10/22 14:03:26;;;;;;;1.98;1.02;;;;;;;;;;5016450;28;20026;-68
2023/10/22 14:05:52;;;;;;;0.80;0.80;;;;;;;;;;4999246;28;20048;-68
2023/10/22 14:08:17;;;;;;;0.88;0.88;;;;;;;;;;5016621;28;20131;-67
2023/10/22 14:10:43;;;;;;;1.88;0.90;;;;;;;;;;5014851;28;20030;-67
2023/10/22 14:13:08;;;;;;;1.10;1.00;;;;;;;;;;5014413;28;20021;-68
2023/10/22 14:15:34;;;;;;;0.98;0.93;;;;;;;;;;5014345;28;20495;-67
2023/10/22 14:17:59;;;;;;;1.23;1.13;;;;;;;;;;5014430;28;20034;-68
2023/10/22 14:20:25;;;;;;;1.45;0.90;;;;;;;;;;5014096;28;20412;-67
2023/10/22 14:22:51;;;;;;;1.20;1.00;;;;;;;;;;5016116;28;20053;-67
2023/10/22 14:25:18;;;;;;;1.00;1.00;;;;;;;;;;5016637;28;20065;-68
2023/10/22 14:27:47;;;;;;;0.80;0.80;;;;;;;;;;5016662;28;20037;-67
2023/10/22 14:30:13;;;;;;;1.90;1.30;;;;;;;;;;5013856;28;20034;-65
2023/10/22 14:32:39;;;;;;;1.23;1.17;;;;;;;;;;5014513;28;20040;-72
2023/10/22 14:35:05;;;;;;;1.30;1.20;;;;;;;;;;5014948;28;20057;-72
2023/10/22 14:37:31;;;;;;;0.80;0.80;;;;;;;;;;5014455;28;20107;-71
2023/10/22 14:39:57;;;;;;;1.05;1.02;;;;;;;;;;4986979;28;20539;-72
2023/10/22 14:42:23;;;;;;;1.17;1.08;;;;;;;;;;5005855;28;20113;-72
2023/10/22 14:44:48;;;;;;;1.10;1.00;;;;;;;;;;5003877;28;20159;-71
2023/10/22 14:47:14;;;;;;;0.93;0.93;;;;;;;;;;5005130;28;20030;-72